createdAt,value
2023-06-25T00:00:45.471Z,7.93
2023-06-25T00:03:15.410Z,6.50
2023-06-25T00:05:44.664Z,7.30
2023-06-25T00:08:12.802Z,8.30
2023-06-25T00:10:41.194Z,7.43
2023-06-25T00:13:09.330Z,10.63
2023-06-25T00:15:37.461Z,7.80
2023-06-25T00:18:05.905Z,8.27
2023-06-25T00:20:36.002Z,8.48
2023-06-25T00:23:07.497Z,12.02
2023-06-25T00:25:37.001Z,6.80
2023-06-25T00:28:09.691Z,10.30
2023-06-25T00:30:39.811Z,6.90
2023-06-25T00:33:08.405Z,12.57
2023-06-25T00:36:08.029Z,10.60
2023-06-25T00:38:38.553Z,11.30
2023-06-25T00:41:08.926Z,11.15
2023-06-25T00:43:38.198Z,10.40
2023-06-25T00:46:06.485Z,8.70
2023-06-25T00:48:34.752Z,7.20
2023-06-25T00:51:04.536Z,12.70
2023-06-25T00:53:36.626Z,8.48
2023-06-25T00:56:05.893Z,10.25
2023-06-25T00:58:38.690Z,12.27
2023-06-25T01:01:21.518Z,9.50
2023-06-25T01:04:01.567Z,9.68
2023-06-25T01:06:36.790Z,7.85
2023-06-25T01:09:07.342Z,13.15
2023-06-25T01:11:36.378Z,8.43
2023-06-25T01:14:05.073Z,14.07
2023-06-25T01:16:33.821Z,13.02
2023-06-25T01:19:05.611Z,10.85
2023-06-25T01:21:37.716Z,8.23
2023-06-25T01:24:08.363Z,10.40
2023-06-25T01:26:37.126Z,11.77
2023-06-25T01:29:05.399Z,9.57
2023-06-25T01:31:33.901Z,8.00
2023-06-25T01:34:02.417Z,11.65
2023-06-25T01:36:33.485Z,9.43
2023-06-25T01:39:01.725Z,10.95
2023-06-25T01:41:31.331Z,10.10
2023-06-25T01:43:59.721Z,11.23
2023-06-25T01:46:28.138Z,9.18
2023-06-25T01:48:56.597Z,10.90
2023-06-25T01:51:25.229Z,14.50
2023-06-25T01:53:53.589Z,11.02
2023-06-25T01:56:21.993Z,9.70
2023-06-25T01:58:54.107Z,9.82
2023-06-25T02:01:23.452Z,10.70
2023-06-25T02:03:52.100Z,9.82
2023-06-25T02:06:20.865Z,11.88
2023-06-25T02:08:49.437Z,11.45
2023-06-25T02:11:17.783Z,9.50
2023-06-25T02:13:46.349Z,12.27
2023-06-25T02:16:16.416Z,10.70
2023-06-25T02:18:44.834Z,11.10
2023-06-25T02:21:13.353Z,12.45
2023-06-25T02:23:42.899Z,10.95
2023-06-25T02:26:11.732Z,12.52
2023-06-25T02:28:40.131Z,10.20
2023-06-25T02:31:26.164Z,10.48
2023-06-25T02:33:57.562Z,9.43
2023-06-25T02:36:26.035Z,9.98
2023-06-25T02:38:54.366Z,8.98
2023-06-25T02:41:23.087Z,10.60
2023-06-25T02:43:51.782Z,11.75
2023-06-25T02:46:21.704Z,10.63
2023-06-25T02:48:53.145Z,14.02
2023-06-25T02:51:21.925Z,10.50
2023-06-25T02:53:50.288Z,16.45
2023-06-25T02:56:18.950Z,9.95
2023-06-25T02:58:47.490Z,12.45
2023-06-25T03:01:15.967Z,16.30
2023-06-25T03:03:45.660Z,12.48
2023-06-25T03:06:14.012Z,11.23
2023-06-25T03:08:42.646Z,10.70
2023-06-25T03:11:10.963Z,12.75
2023-06-25T03:13:39.206Z,12.68
2023-06-25T03:16:07.510Z,12.00
2023-06-25T03:18:36.363Z,11.90
2023-06-25T03:21:05.968Z,10.05
2023-06-25T03:23:34.258Z,11.40
2023-06-25T03:26:02.858Z,11.90
2023-06-25T03:28:31.525Z,12.60
2023-06-25T03:30:59.907Z,10.20
2023-06-25T03:33:28.304Z,14.18
2023-06-25T03:35:57.043Z,11.07
2023-06-25T03:38:26.756Z,12.48
2023-06-25T03:40:55.550Z,10.15
2023-06-25T03:43:23.985Z,12.68
2023-06-25T03:45:52.557Z,11.65
2023-06-25T03:48:21.863Z,10.35
2023-06-25T03:50:50.294Z,14.75
2023-06-25T03:53:19.524Z,10.63
2023-06-25T03:55:49.266Z,10.85
2023-06-25T03:58:20.870Z,10.88
2023-06-25T04:00:49.146Z,11.85
2023-06-25T04:03:17.512Z,12.18
2023-06-25T04:05:46.963Z,15.20
2023-06-25T04:08:15.411Z,11.60
2023-06-25T04:10:44.168Z,14.35
2023-06-25T04:13:14.035Z,10.13
2023-06-25T04:15:42.589Z,16.65
2023-06-25T04:18:10.778Z,12.88
2023-06-25T04:20:39.182Z,12.48
2023-06-25T04:23:07.372Z,15.32
2023-06-25T04:25:36.159Z,11.75
2023-06-25T04:28:08.594Z,12.82
2023-06-25T04:30:38.354Z,12.45
2023-06-25T04:33:08.119Z,11.15
2023-06-25T04:35:37.048Z,16.52
2023-06-25T04:38:05.725Z,7.53
2023-06-25T04:40:34.055Z,9.82
2023-06-25T04:43:02.536Z,12.55
2023-06-25T04:45:30.794Z,14.73
2023-06-25T04:48:00.449Z,8.43
2023-06-25T04:50:28.816Z,12.93
2023-06-25T04:52:57.065Z,10.52
2023-06-25T04:55:25.460Z,11.38
2023-06-25T04:57:53.803Z,10.35
2023-06-25T05:00:22.643Z,9.30
2023-06-25T05:02:50.907Z,8.30
2023-06-25T05:05:20.893Z,10.20
2023-06-25T05:07:49.822Z,9.48
2023-06-25T05:10:18.548Z,8.80
2023-06-25T05:12:48.360Z,7.25
2023-06-25T05:15:17.760Z,7.90
2023-06-25T05:17:46.121Z,8.38
2023-06-25T05:20:14.766Z,10.15
2023-06-25T05:22:44.292Z,7.43
2023-06-25T05:25:12.605Z,8.98
2023-06-25T05:27:40.685Z,6.03
2023-06-25T05:30:10.520Z,6.45
2023-06-25T05:32:38.680Z,5.82
2023-06-25T05:35:07.917Z,7.45
2023-06-25T05:37:36.066Z,5.55
2023-06-25T05:40:07.323Z,5.00
2023-06-25T05:42:35.401Z,5.15
2023-06-25T05:45:03.541Z,4.85
2023-06-25T05:47:31.656Z,8.55
2023-06-25T05:49:59.816Z,5.38
2023-06-25T05:52:27.950Z,4.88
2023-06-25T05:54:56.068Z,6.45
2023-06-25T05:57:26.496Z,5.78
2023-06-25T05:59:54.688Z,4.15
2023-06-25T06:02:22.886Z,5.97
2023-06-25T06:04:50.975Z,5.13
2023-06-25T06:07:19.101Z,4.13
2023-06-25T06:09:47.246Z,5.45
2023-06-25T06:12:15.696Z,5.40
2023-06-25T06:14:45.132Z,5.10
2023-06-25T06:17:13.243Z,5.72
2023-06-25T06:19:41.360Z,5.38
2023-06-25T06:22:09.466Z,6.03
2023-06-25T06:24:37.559Z,5.18
2023-06-25T06:27:06.832Z,4.22
2023-06-25T06:29:34.911Z,6.18
2023-06-25T06:32:04.850Z,7.57
2023-06-25T06:34:32.904Z,4.60
2023-06-25T06:37:02.225Z,5.80
2023-06-25T06:39:30.327Z,4.68
2023-06-25T06:41:58.493Z,6.22
2023-06-25T06:44:26.665Z,6.10
2023-06-25T06:46:55.413Z,4.10
2023-06-25T06:49:24.885Z,3.95
2023-06-25T06:51:52.932Z,4.68
2023-06-25T06:54:21.258Z,5.10
2023-06-25T06:56:49.699Z,4.97
2023-06-25T06:59:17.775Z,4.20
2023-06-25T07:01:45.871Z,5.25
2023-06-25T07:04:15.663Z,5.55
2023-06-25T07:06:46.806Z,4.60
2023-06-25T07:09:15.339Z,5.30
2023-06-25T07:11:43.391Z,4.43
2023-06-25T07:14:11.439Z,3.80
2023-06-25T07:16:43.216Z,3.55
2023-06-25T07:19:11.325Z,7.45
2023-06-25T07:21:39.483Z,6.40
2023-06-25T07:24:09.584Z,3.60
2023-06-25T07:26:37.771Z,3.45
2023-06-25T07:29:05.851Z,4.68
2023-06-25T07:31:33.996Z,3.78
2023-06-25T07:34:02.169Z,3.47
2023-06-25T07:36:30.236Z,3.17
2023-06-25T07:38:59.821Z,3.60
2023-06-25T07:41:29.234Z,3.28
2023-06-25T07:43:57.652Z,4.93
2023-06-25T07:46:26.374Z,3.60
2023-06-25T07:48:54.549Z,2.95
2023-06-25T07:51:22.781Z,3.00
2023-06-25T07:53:50.844Z,7.60
2023-06-25T07:56:18.947Z,2.47
2023-06-25T07:58:48.505Z,2.95
2023-06-25T08:01:16.561Z,3.03
2023-06-25T08:03:44.792Z,4.25
2023-06-25T08:06:12.967Z,4.82
2023-06-25T08:08:42.107Z,3.22
2023-06-25T08:11:10.144Z,4.63
2023-06-25T08:13:38.456Z,3.80
2023-06-25T08:16:08.075Z,4.00
2023-06-25T08:18:36.120Z,3.17
2023-06-25T08:21:06.233Z,2.05
2023-06-25T08:23:35.523Z,2.40
2023-06-25T08:26:03.865Z,5.13
2023-06-25T08:28:32.257Z,3.90
2023-06-25T08:31:00.463Z,2.88
2023-06-25T08:33:29.920Z,2.95
2023-06-25T08:35:58.233Z,2.58
2023-06-25T08:38:27.370Z,4.72
2023-06-25T08:40:56.957Z,3.22
2023-06-25T08:43:25.380Z,3.25
2023-06-25T08:45:53.457Z,2.22
2023-06-25T08:48:24.738Z,2.38
2023-06-25T08:50:58.487Z,2.78
2023-06-25T08:53:28.028Z,4.38
2023-06-25T08:55:57.707Z,2.50
2023-06-25T08:58:26.365Z,2.03
2023-06-25T09:00:54.511Z,2.28
2023-06-25T09:03:22.871Z,2.95
2023-06-25T09:05:58.491Z,2.38
2023-06-25T09:08:28.678Z,3.10
2023-06-25T09:10:58.909Z,2.35
2023-06-25T09:13:29.397Z,2.45
2023-06-25T09:16:04.166Z,3.50
2023-06-25T09:18:32.693Z,2.30
2023-06-25T09:21:06.488Z,3.65
2023-06-25T09:23:36.894Z,2.55
2023-06-25T09:26:09.895Z,3.03
2023-06-25T09:28:50.344Z,5.82
2023-06-25T09:31:19.272Z,2.53
2023-06-25T09:33:53.353Z,4.07
2023-06-25T09:38:54.817Z,3.30
2023-06-25T09:41:25.830Z,3.03
2023-06-25T09:43:58.260Z,3.90
2023-06-25T09:46:29.319Z,2.03
2023-06-25T09:49:00.969Z,2.85
2023-06-25T09:51:51.928Z,2.58
2023-06-25T09:54:24.577Z,2.55
2023-06-25T09:56:53.706Z,2.42
2023-06-25T09:59:24.705Z,3.85
2023-06-25T10:01:54.880Z,2.88
2023-06-25T10:04:24.056Z,2.88
2023-06-25T10:06:56.012Z,5.00
2023-06-25T10:09:24.130Z,2.78
2023-06-25T10:11:53.121Z,3.13
2023-06-25T10:14:21.319Z,4.20
2023-06-25T10:16:59.153Z,3.33
2023-06-25T10:19:29.292Z,4.95
2023-06-25T10:22:06.624Z,2.72
2023-06-25T10:24:50.144Z,5.28
2023-06-25T10:27:23.961Z,3.45
2023-06-25T10:29:53.903Z,2.65
2023-06-25T10:32:22.366Z,6.35
2023-06-25T10:34:55.657Z,2.00
2023-06-25T10:37:31.581Z,2.50
2023-06-25T10:40:06.054Z,3.58
2023-06-25T10:42:34.422Z,3.63
2023-06-25T10:45:02.601Z,3.72
2023-06-25T10:47:31.190Z,2.13
2023-06-25T10:49:59.305Z,2.58
2023-06-25T10:52:29.441Z,2.50
2023-06-25T10:54:57.924Z,2.75
2023-06-25T10:57:27.774Z,4.25
2023-06-25T10:59:55.885Z,2.17
2023-06-25T11:02:24.909Z,2.58
2023-06-25T11:04:54.296Z,2.70
2023-06-25T11:07:24.183Z,2.03
2023-06-25T11:09:56.944Z,2.78
2023-06-25T11:12:25.109Z,2.38
2023-06-25T11:14:53.187Z,3.88
2023-06-25T11:17:21.677Z,3.30
2023-06-25T11:19:53.280Z,3.75
2023-06-25T11:22:22.192Z,2.08
2023-06-25T11:24:53.220Z,1.88
2023-06-25T11:27:28.273Z,2.72
2023-06-25T11:29:58.109Z,2.53
2023-06-25T11:32:32.150Z,2.70
2023-06-25T11:35:01.385Z,2.97
2023-06-25T11:37:29.585Z,3.58
2023-06-25T11:39:59.526Z,3.35
2023-06-25T11:42:28.233Z,3.28
2023-06-25T11:45:08.771Z,3.17
2023-06-25T11:47:36.858Z,3.08
2023-06-25T11:50:05.522Z,4.10
2023-06-25T11:52:34.916Z,2.97
2023-06-25T11:55:04.581Z,3.65
2023-06-25T11:57:32.656Z,4.38
2023-06-25T12:00:00.867Z,2.15
2023-06-25T12:02:40.895Z,2.47
2023-06-25T12:05:14.205Z,3.15
2023-06-25T12:07:42.268Z,3.20
2023-06-25T12:10:12.194Z,4.45
2023-06-25T12:12:40.343Z,4.50
2023-06-25T12:15:09.068Z,4.30
2023-06-25T12:17:37.224Z,2.28
2023-06-25T12:20:05.908Z,1.90
2023-06-25T12:22:34.038Z,2.65
2023-06-25T12:25:02.203Z,2.58
2023-06-25T12:27:31.637Z,3.50
2023-06-25T12:29:59.729Z,3.60
2023-06-25T12:32:27.802Z,1.75
2023-06-25T12:34:55.909Z,2.00
2023-06-25T12:37:23.973Z,3.03
2023-06-25T12:39:52.125Z,2.38
2023-06-25T12:42:20.283Z,2.92
2023-06-25T12:44:49.766Z,5.75
2023-06-25T12:47:18.091Z,2.30
2023-06-25T12:49:46.187Z,3.10
2023-06-25T12:52:14.238Z,2.03
2023-06-25T12:54:43.856Z,2.30
2023-06-25T12:57:11.933Z,2.95
2023-06-25T12:59:40.010Z,2.97
2023-06-25T13:02:09.679Z,3.30
2023-06-25T13:04:37.843Z,3.15
2023-06-25T13:07:06.147Z,2.33
2023-06-25T13:09:35.172Z,2.28
2023-06-25T13:12:03.252Z,2.35
2023-06-25T13:14:31.354Z,2.00
2023-06-25T13:16:59.437Z,3.13
2023-06-25T13:19:28.927Z,2.90
2023-06-25T13:21:57.031Z,2.55
2023-06-25T13:24:25.503Z,2.65
2023-06-25T13:26:54.346Z,2.42
2023-06-25T13:29:22.473Z,2.45
2023-06-25T13:31:50.770Z,2.80
2023-06-25T13:34:18.852Z,2.92
2023-06-25T13:36:48.444Z,2.20
2023-06-25T13:39:16.472Z,3.70
2023-06-25T13:41:44.913Z,2.92
2023-06-25T13:44:13.022Z,2.60
2023-06-25T13:46:41.316Z,1.95
2023-06-25T13:49:09.421Z,6.93
2023-06-25T13:51:37.768Z,3.13
2023-06-25T13:54:07.488Z,2.72
2023-06-25T13:56:35.789Z,4.35
2023-06-25T13:59:03.978Z,2.72
2023-06-25T14:01:32.055Z,2.78
2023-06-25T14:04:00.228Z,2.72
2023-06-25T14:06:28.345Z,2.30
2023-06-25T14:08:56.458Z,4.00
2023-06-25T14:11:26.064Z,3.13
2023-06-25T14:13:54.193Z,7.65
2023-06-25T14:16:22.230Z,3.85
2023-06-25T14:18:52.840Z,2.72
2023-06-25T14:21:20.948Z,6.20
2023-06-25T14:23:50.238Z,3.17
2023-06-25T14:26:18.385Z,2.67
2023-06-25T14:28:55.475Z,3.42
2023-06-25T14:31:30.383Z,2.78
2023-06-25T14:33:58.493Z,3.25
2023-06-25T14:36:26.589Z,4.47
2023-06-25T14:38:54.637Z,3.13
2023-06-25T14:41:22.745Z,2.60
2023-06-25T14:43:52.234Z,3.20
2023-06-25T14:46:20.324Z,3.42
2023-06-25T14:48:48.416Z,3.45
2023-06-25T14:51:16.456Z,3.75
2023-06-25T14:53:44.584Z,2.97
2023-06-25T14:56:12.866Z,2.53
2023-06-25T14:58:41.001Z,3.03
2023-06-25T15:01:10.466Z,2.78
2023-06-25T15:03:38.760Z,3.10
2023-06-25T15:06:13.399Z,3.05
2023-06-25T15:08:46.086Z,2.65
2023-06-25T15:11:14.365Z,6.95
2023-06-25T15:13:42.456Z,3.28
2023-06-25T15:16:13.878Z,3.40
2023-06-25T15:18:41.941Z,3.55
2023-06-25T15:21:10.729Z,3.25
2023-06-25T15:23:38.763Z,2.53
2023-06-25T15:26:09.448Z,2.92
2023-06-25T15:28:37.565Z,3.20
2023-06-25T15:31:05.721Z,2.70
2023-06-25T15:33:35.165Z,3.60
2023-06-25T15:36:03.304Z,3.72
2023-06-25T15:38:31.517Z,4.75
2023-06-25T15:40:59.582Z,4.20
2023-06-25T15:43:27.704Z,4.88
2023-06-25T15:45:55.839Z,2.95
2023-06-25T15:48:23.944Z,4.72
2023-06-25T15:50:53.960Z,5.47
2023-06-25T15:53:22.166Z,3.38
2023-06-25T15:55:50.237Z,4.28
2023-06-25T15:58:18.351Z,3.45
2023-06-25T16:00:48.045Z,2.38
2023-06-25T16:03:16.587Z,4.85
2023-06-25T16:05:45.025Z,6.13
2023-06-25T16:08:14.466Z,3.00
2023-06-25T16:10:42.554Z,3.42
2023-06-25T16:13:10.638Z,2.88
2023-06-25T16:15:38.972Z,2.95
2023-06-25T16:18:07.360Z,4.32
2023-06-25T16:20:35.451Z,4.13
2023-06-25T16:23:03.485Z,3.35
2023-06-25T16:25:33.142Z,5.35
2023-06-25T16:28:01.272Z,3.38
2023-06-25T16:30:29.318Z,2.85
2023-06-25T16:32:57.463Z,5.20
2023-06-25T16:35:25.735Z,4.00
2023-06-25T16:37:53.837Z,3.30
2023-06-25T16:40:21.891Z,4.45
2023-06-25T16:42:51.341Z,4.03
2023-06-25T16:45:20.682Z,8.35
2023-06-25T16:47:48.837Z,3.58
2023-06-25T16:50:18.201Z,5.85
2023-06-25T16:52:46.347Z,6.72
2023-06-25T16:55:14.403Z,5.70
2023-06-25T16:57:42.413Z,4.88
2023-06-25T17:00:13.787Z,3.40
2023-06-25T17:02:44.410Z,2.92
2023-06-25T17:05:12.778Z,3.20
2023-06-25T17:07:40.905Z,3.72
2023-06-25T17:10:09.670Z,2.90
2023-06-25T17:12:37.742Z,2.92
2023-06-25T17:15:06.666Z,4.18
2023-06-25T17:17:36.162Z,3.05
2023-06-25T17:20:04.943Z,3.38
2023-06-25T17:22:33.002Z,3.00
2023-06-25T17:25:01.058Z,5.25
2023-06-25T17:27:29.477Z,4.00
2023-06-25T17:29:57.644Z,4.05
2023-06-25T17:32:25.763Z,3.42
2023-06-25T17:34:55.759Z,4.15
2023-06-25T17:37:24.085Z,2.65
2023-06-25T17:39:52.194Z,3.58
2023-06-25T17:42:20.258Z,2.72
2023-06-25T17:44:48.744Z,3.53
2023-06-25T17:47:16.896Z,3.58
2023-06-25T17:49:44.925Z,4.65
2023-06-25T17:52:14.635Z,3.38
2023-06-25T17:54:42.685Z,3.65
2023-06-25T17:57:11.060Z,3.85
2023-06-25T17:59:39.138Z,4.25
2023-06-25T18:02:08.060Z,4.25
2023-06-25T18:04:38.304Z,3.30
2023-06-25T18:07:08.369Z,4.25
2023-06-25T18:09:38.982Z,2.75
2023-06-25T18:12:07.879Z,2.70
2023-06-25T18:14:35.999Z,5.90
2023-06-25T18:17:07.678Z,3.42
2023-06-25T18:19:35.769Z,4.80
2023-06-25T18:22:03.925Z,4.32
2023-06-25T18:24:32.040Z,3.70
2023-06-25T18:27:01.459Z,5.97
2023-06-25T18:29:29.686Z,7.43
2023-06-25T18:31:57.822Z,3.40
2023-06-25T18:34:25.895Z,3.42
2023-06-25T18:36:53.998Z,3.30
2023-06-25T18:39:22.368Z,4.25
2023-06-25T18:41:50.544Z,9.77
2023-06-25T18:44:20.046Z,3.78
2023-06-25T18:46:48.135Z,7.32
2023-06-25T18:49:16.221Z,3.85
2023-06-25T18:51:44.294Z,3.30
2023-06-25T18:54:12.382Z,4.05
2023-06-25T18:56:42.400Z,4.20
2023-06-25T18:59:12.668Z,5.30
2023-06-25T19:01:42.276Z,3.63
2023-06-25T19:04:10.421Z,4.72
2023-06-25T19:06:38.563Z,9.10
2023-06-25T19:09:06.645Z,10.25
2023-06-25T19:11:34.701Z,5.57
2023-06-25T19:14:04.262Z,3.92
2023-06-25T19:16:32.570Z,5.43
2023-06-25T19:19:02.055Z,6.72
2023-06-25T19:21:30.150Z,6.60
2023-06-25T19:23:58.212Z,9.52
2023-06-25T19:26:26.350Z,6.78
2023-06-25T19:28:54.498Z,6.25
2023-06-25T19:31:22.701Z,4.70
2023-06-25T19:33:50.955Z,5.60
2023-06-25T19:36:20.401Z,5.63
2023-06-25T19:38:49.408Z,3.78
2023-06-25T19:41:17.763Z,4.75
2023-06-25T19:43:45.840Z,4.90
2023-06-25T19:46:14.087Z,4.55
2023-06-25T19:48:42.326Z,7.22
2023-06-25T19:51:12.066Z,4.88
2023-06-25T19:53:41.591Z,7.20
2023-06-25T19:56:13.529Z,4.78
2023-06-25T19:58:41.810Z,8.75
2023-06-25T20:01:09.901Z,5.30
2023-06-25T20:03:37.967Z,5.55
2023-06-25T20:06:06.076Z,5.53
2023-06-25T20:08:34.173Z,4.25
2023-06-25T20:11:04.019Z,7.30
2023-06-25T20:13:32.118Z,5.15
2023-06-25T20:16:00.204Z,4.80
2023-06-25T20:18:28.305Z,5.47
2023-06-25T20:20:56.416Z,5.65
2023-06-25T20:23:24.561Z,6.20
2023-06-25T20:25:52.836Z,7.97
2023-06-25T20:28:22.511Z,5.82
2023-06-25T20:30:50.751Z,10.85
2023-06-25T20:33:18.837Z,6.60
2023-06-25T20:35:47.025Z,6.15
2023-06-25T20:38:15.145Z,7.60
2023-06-25T20:40:43.251Z,4.30
2023-06-25T20:43:11.401Z,5.88
2023-06-25T20:45:41.889Z,6.95
2023-06-25T20:48:11.117Z,5.53
2023-06-25T20:50:39.587Z,4.35
2023-06-25T20:53:07.845Z,4.88
2023-06-25T20:55:35.948Z,6.00
2023-06-25T20:58:03.989Z,6.93
2023-06-25T21:00:35.236Z,4.93
2023-06-25T21:03:06.850Z,5.25
2023-06-25T21:05:34.983Z,4.57
2023-06-25T21:08:03.140Z,7.65
2023-06-25T21:10:32.566Z,5.53
2023-06-25T21:13:00.615Z,5.80
2023-06-25T21:15:28.809Z,4.75
2023-06-25T21:17:57.058Z,4.95
2023-06-25T21:20:26.580Z,6.80
2023-06-25T21:22:55.550Z,5.72
2023-06-25T21:25:23.635Z,4.90
2023-06-25T21:27:51.670Z,5.07
2023-06-25T21:30:19.857Z,5.50
2023-06-25T21:32:48.083Z,6.22
2023-06-25T21:35:16.688Z,5.50
2023-06-25T21:37:46.170Z,5.47
2023-06-25T21:40:14.272Z,4.72
2023-06-25T21:42:42.332Z,7.38
2023-06-25T21:45:10.697Z,5.10
2023-06-25T21:47:38.821Z,5.65
2023-06-25T21:50:07.981Z,5.47
2023-06-25T21:52:36.058Z,4.85
2023-06-25T21:55:07.395Z,6.15
2023-06-25T21:57:35.555Z,5.20
2023-06-25T22:00:05.128Z,4.60
2023-06-25T22:02:33.297Z,4.75
2023-06-25T22:05:01.399Z,5.38
2023-06-25T22:07:29.521Z,5.88
2023-06-25T22:09:57.647Z,6.03
2023-06-25T22:12:27.187Z,5.93
2023-06-25T22:14:55.540Z,5.95
2023-06-25T22:17:25.139Z,5.78
2023-06-25T22:19:54.270Z,7.78
2023-06-25T22:22:22.803Z,6.20
2023-06-25T22:24:51.127Z,5.07
2023-06-25T22:27:19.291Z,7.57
2023-06-25T22:29:48.792Z,5.57
2023-06-25T22:32:17.075Z,5.65
2023-06-25T22:34:46.073Z,5.57
2023-06-25T22:37:14.426Z,7.05
2023-06-25T22:39:42.504Z,7.10
2023-06-25T22:42:10.619Z,5.35
2023-06-25T22:44:38.724Z,5.45
2023-06-25T22:47:08.884Z,6.85
2023-06-25T22:49:36.952Z,5.20
2023-06-25T22:52:05.907Z,4.88
2023-06-25T22:54:34.012Z,5.22
2023-06-25T22:57:02.088Z,6.60
2023-06-25T22:59:30.203Z,6.53
2023-06-25T23:01:58.946Z,5.50
2023-06-25T23:04:28.530Z,6.90
2023-06-25T23:06:56.700Z,6.35
2023-06-25T23:09:24.939Z,6.82
2023-06-25T23:11:53.020Z,6.95
2023-06-25T23:14:21.108Z,7.18
2023-06-25T23:16:49.727Z,8.13
2023-06-25T23:19:20.683Z,6.97
2023-06-25T23:21:50.096Z,5.57
2023-06-25T23:24:18.326Z,6.07
2023-06-25T23:26:47.727Z,7.55
2023-06-25T23:29:18.532Z,5.88
2023-06-25T23:31:47.129Z,7.05
2023-06-25T23:34:15.300Z,5.45
2023-06-25T23:36:43.483Z,7.18
2023-06-25T23:39:13.001Z,7.35
2023-06-25T23:41:41.201Z,8.05
2023-06-25T23:44:09.354Z,6.25
2023-06-25T23:46:37.593Z,8.48
2023-06-25T23:49:06.586Z,8.50
2023-06-25T23:51:35.437Z,6.57
2023-06-25T23:54:03.806Z,5.75
2023-06-25T23:56:35.003Z,8.75
2023-06-25T23:59:03.975Z,7.22
